createdAt,value
2018-07-24T00:01:22.831Z,100035.00
2018-07-24T00:03:50.564Z,100035.00
2018-07-24T00:06:18.233Z,100033.00
2018-07-24T00:08:45.889Z,100036.00
2018-07-24T00:11:13.525Z,100036.00
2018-07-24T00:13:41.195Z,100036.00
2018-07-24T00:16:10.603Z,100035.00
2018-07-24T00:18:38.269Z,100032.00
2018-07-24T00:21:06.033Z,100032.00
2018-07-24T00:23:34.145Z,100030.00
2018-07-24T00:26:02.021Z,100030.00
2018-07-24T00:28:29.699Z,100029.00
2018-07-24T00:30:57.407Z,100027.00
2018-07-24T00:33:25.048Z,100029.00
2018-07-24T00:35:52.656Z,100027.00
2018-07-24T00:38:20.679Z,100024.00
2018-07-24T00:40:48.356Z,100028.00
2018-07-24T00:43:16.015Z,100026.00
2018-07-24T00:45:43.819Z,100030.00
2018-07-24T00:48:11.475Z,100029.00
2018-07-24T00:50:39.200Z,100025.00
2018-07-24T00:53:07.063Z,100023.00
2018-07-24T00:55:34.747Z,100021.00
2018-07-24T00:58:03.488Z,100017.00
2018-07-24T01:00:31.467Z,100011.00
2018-07-24T01:02:59.699Z,100013.00
2018-07-24T01:05:27.394Z,100013.00
2018-07-24T01:07:55.335Z,100009.00
2018-07-24T01:10:22.925Z,100008.00
2018-07-24T01:12:50.519Z,100009.00
2018-07-24T01:15:18.306Z,100019.00
2018-07-24T01:17:45.905Z,100015.00
2018-07-24T01:20:13.623Z,100016.00
2018-07-24T01:22:41.554Z,100016.00
2018-07-24T01:25:09.167Z,100013.00
2018-07-24T01:27:37.049Z,100019.00
2018-07-24T01:30:04.895Z,100021.00
2018-07-24T01:32:32.595Z,100020.00
2018-07-24T01:35:01.294Z,100020.00
2018-07-24T01:37:29.332Z,100016.00
2018-07-24T01:39:57.000Z,100019.00
2018-07-24T01:42:24.643Z,100013.00
2018-07-24T01:44:52.582Z,100014.00
2018-07-24T01:47:20.302Z,100016.00
2018-07-24T01:49:48.055Z,100013.00
2018-07-24T01:52:15.724Z,100012.00
2018-07-24T01:54:43.402Z,100015.00
2018-07-24T01:57:11.068Z,100019.00
2018-07-24T01:59:38.679Z,100016.00
2018-07-24T02:02:06.785Z,100014.00
2018-07-24T02:04:34.456Z,100014.00
2018-07-24T02:07:02.585Z,100014.00
2018-07-24T02:09:30.192Z,100014.00
2018-07-24T02:11:57.826Z,100017.00
2018-07-24T02:14:26.083Z,100016.00
2018-07-24T02:17:06.146Z,100015.00
2018-07-24T02:19:45.024Z,100013.00
2018-07-24T02:22:20.006Z,100012.00
2018-07-24T02:25:26.049Z,100011.00
2018-07-24T02:28:39.599Z,100011.00
2018-07-24T02:31:14.882Z,100016.00
2018-07-24T02:33:42.495Z,100011.00
2018-07-24T02:36:10.240Z,100011.00
2018-07-24T02:38:37.848Z,100017.00
2018-07-24T02:41:05.585Z,100017.00
2018-07-24T02:43:33.361Z,100022.00
2018-07-24T02:46:01.436Z,100016.00
2018-07-24T02:48:29.075Z,100019.00
2018-07-24T02:50:57.173Z,100014.00
2018-07-24T02:53:24.837Z,100014.00
2018-07-24T02:55:52.709Z,100017.00
2018-07-24T02:58:20.388Z,100020.00
2018-07-24T03:00:48.044Z,100026.00
2018-07-24T03:03:16.519Z,100027.00
2018-07-24T03:05:44.197Z,100025.00
2018-07-24T03:08:12.097Z,100025.00
2018-07-24T03:10:39.947Z,100025.00
2018-07-24T03:13:07.671Z,100022.00
2018-07-24T03:15:35.512Z,100018.00
2018-07-24T03:18:03.572Z,100013.00
2018-07-24T03:20:31.197Z,100013.00
2018-07-24T03:22:58.891Z,100021.00
2018-07-24T03:25:26.660Z,100021.00
2018-07-24T03:27:54.283Z,100026.00
2018-07-24T03:30:22.059Z,100031.00
2018-07-24T03:32:49.892Z,100030.00
2018-07-24T03:35:17.516Z,100039.00
2018-07-24T03:37:46.390Z,100040.00
2018-07-24T03:40:14.129Z,100045.00
2018-07-24T03:42:41.767Z,100045.00
2018-07-24T03:45:09.383Z,100045.00
2018-07-24T03:47:37.396Z,100039.00
2018-07-24T03:50:05.136Z,100040.00
2018-07-24T03:52:32.945Z,100039.00
2018-07-24T03:55:00.608Z,100046.00
2018-07-24T03:57:28.263Z,100045.00
2018-07-24T03:59:56.251Z,100050.00
2018-07-24T04:02:23.939Z,100052.00
2018-07-24T04:04:51.732Z,100053.00
2018-07-24T04:07:19.435Z,100054.00
2018-07-24T04:09:47.191Z,100055.00
2018-07-24T04:12:15.134Z,100049.00
2018-07-24T04:14:43.365Z,100053.00
2018-07-24T04:17:11.032Z,100057.00
2018-07-24T04:19:39.396Z,100058.00
2018-07-24T04:22:07.027Z,100061.00
2018-07-24T04:24:34.719Z,100055.00
2018-07-24T04:27:02.555Z,100056.00
2018-07-24T04:39:48.108Z,100051.00
2018-07-24T04:42:15.709Z,100051.00
2018-07-24T04:44:43.641Z,100054.00
2018-07-24T04:47:11.316Z,100051.00
2018-07-24T04:49:38.994Z,100056.00
2018-07-24T04:52:07.210Z,100058.00
2018-07-24T04:54:34.988Z,100058.00
2018-07-24T04:57:02.766Z,100055.00
2018-07-24T04:59:31.632Z,100054.00
2018-07-24T05:01:59.315Z,100054.00
2018-07-24T05:04:26.924Z,100049.00
2018-07-24T05:06:54.716Z,100052.00
2018-07-24T05:09:22.339Z,100059.00
2018-07-24T05:11:50.121Z,100057.00
2018-07-24T05:14:17.735Z,100059.00
2018-07-24T05:16:45.381Z,100058.00
2018-07-24T05:19:13.441Z,100052.00
2018-07-24T05:21:41.074Z,100050.00
2018-07-24T05:24:08.722Z,100051.00
2018-07-24T05:26:36.631Z,100052.00
2018-07-24T05:29:04.344Z,100051.00
2018-07-24T05:31:31.787Z,100055.00
2018-07-24T05:33:59.459Z,100052.00
2018-07-24T05:36:27.064Z,100054.00
2018-07-24T05:38:55.073Z,100048.00
2018-07-24T05:41:23.599Z,100049.00
2018-07-24T05:43:51.204Z,100050.00
2018-07-24T05:46:20.435Z,100054.00
2018-07-24T05:48:48.322Z,100053.00
2018-07-24T05:51:16.412Z,100055.00
2018-07-24T05:53:44.040Z,100057.00
2018-07-24T05:56:11.696Z,100064.00
2018-07-24T05:58:39.589Z,100050.00
2018-07-24T06:01:07.239Z,100050.00
2018-07-24T06:03:35.127Z,100052.00
2018-07-24T06:06:03.096Z,100055.00
2018-07-24T06:08:30.753Z,100048.00
2018-07-24T06:10:58.372Z,100054.00
2018-07-24T06:13:33.988Z,100050.00
2018-07-24T06:16:26.371Z,100055.00
2018-07-24T06:18:58.272Z,100057.00
2018-07-24T06:21:25.955Z,100055.00
2018-07-24T06:24:16.571Z,100055.00
2018-07-24T06:26:51.886Z,100049.00
2018-07-24T06:29:19.897Z,100052.00
2018-07-24T06:31:48.142Z,100051.00
2018-07-24T06:34:30.902Z,100047.00
2018-07-24T06:36:58.638Z,100049.00
2018-07-24T06:39:34.261Z,100052.00
2018-07-24T06:42:22.575Z,100048.00
2018-07-24T06:44:50.463Z,100053.00
2018-07-24T06:47:18.076Z,100063.00
2018-07-24T06:49:45.756Z,100054.00
2018-07-24T06:52:13.584Z,100059.00
2018-07-24T06:54:41.227Z,100053.00
2018-07-24T06:57:09.110Z,100055.00
2018-07-24T06:59:36.727Z,100056.00
2018-07-24T07:02:04.428Z,100050.00
2018-07-24T07:04:32.323Z,100046.00
2018-07-24T07:06:59.918Z,100043.00
2018-07-24T07:09:27.810Z,100051.00
2018-07-24T07:11:55.483Z,100048.00
2018-07-24T07:14:23.107Z,100050.00
2018-07-24T07:16:51.130Z,100053.00
2018-07-24T07:19:19.222Z,100049.00
2018-07-24T07:21:46.947Z,100051.00
2018-07-24T07:24:14.795Z,100047.00
2018-07-24T07:26:42.402Z,100038.00
2018-07-24T07:29:10.065Z,100037.00
2018-07-24T07:31:37.903Z,100036.00
2018-07-24T07:34:05.333Z,100032.00
2018-07-24T07:36:33.055Z,100029.00
2018-07-24T07:39:01.002Z,100028.00
2018-07-24T07:41:28.620Z,100026.00
2018-07-24T07:43:56.276Z,100027.00
2018-07-24T07:46:23.899Z,100022.00
2018-07-24T07:48:51.521Z,100019.00
2018-07-24T07:51:19.316Z,100022.00
2018-07-24T07:53:46.997Z,100023.00
2018-07-24T07:56:14.592Z,100018.00
2018-07-24T07:58:42.453Z,100021.00
2018-07-24T08:01:09.995Z,100015.00
2018-07-24T08:03:37.617Z,100016.00
2018-07-24T08:06:05.527Z,100014.00
2018-07-24T08:08:33.127Z,100015.00
2018-07-24T08:11:00.782Z,100013.00
2018-07-24T08:13:28.439Z,100011.00
2018-07-24T08:15:56.108Z,100009.00
2018-07-24T08:18:23.750Z,100013.00
2018-07-24T08:20:51.607Z,100012.00
2018-07-24T08:23:19.244Z,100005.00
2018-07-24T08:25:46.920Z,100004.00
2018-07-24T08:28:15.083Z,100003.00
2018-07-24T08:30:42.716Z,100002.00
2018-07-24T08:33:10.327Z,99998.00
2018-07-24T08:35:38.026Z,100000.00
2018-07-24T08:38:05.661Z,99998.00
2018-07-24T08:40:33.487Z,100003.00
2018-07-24T08:43:01.406Z,99997.00
2018-07-24T08:45:29.028Z,100000.00
2018-07-24T08:47:56.699Z,99995.00
2018-07-24T08:50:24.571Z,99988.00
2018-07-24T08:52:52.328Z,99987.00
2018-07-24T08:55:58.600Z,99985.00
2018-07-24T08:58:36.484Z,99984.00
2018-07-24T09:01:42.595Z,99981.00
2018-07-24T09:04:56.139Z,99984.00
2018-07-24T09:07:31.187Z,99979.00
2018-07-24T09:09:58.836Z,99982.00
2018-07-24T09:12:26.593Z,99980.00
2018-07-24T09:14:54.251Z,99982.00
2018-07-24T09:17:21.867Z,99982.00
2018-07-24T09:19:49.730Z,99979.00
2018-07-24T09:22:17.400Z,99974.00
2018-07-24T09:24:45.052Z,99978.00
2018-07-24T09:27:12.929Z,99976.00
2018-07-24T09:29:40.543Z,99975.00
2018-07-24T09:32:08.338Z,99974.00
2018-07-24T09:34:36.044Z,99971.00
2018-07-24T09:37:04.744Z,99970.00
2018-07-24T09:39:32.331Z,99963.00
2018-07-24T09:42:00.165Z,99958.00
2018-07-24T09:44:27.979Z,99959.00
2018-07-24T09:46:55.604Z,99950.00
2018-07-24T09:49:23.223Z,99955.00
2018-07-24T09:51:50.835Z,99952.00
2018-07-24T09:54:19.015Z,99951.00
2018-07-24T09:56:46.633Z,99951.00
2018-07-24T09:59:14.230Z,99951.00
2018-07-24T10:01:42.216Z,99941.00
2018-07-24T10:04:09.780Z,99942.00
2018-07-24T10:06:37.400Z,99942.00
2018-07-24T10:09:08.364Z,99943.00
2018-07-24T10:11:35.968Z,99936.00
2018-07-24T10:14:03.616Z,99938.00
2018-07-24T10:16:31.555Z,99933.00
2018-07-24T10:18:59.171Z,99935.00
2018-07-24T10:21:26.798Z,99936.00
2018-07-24T10:23:54.527Z,99938.00
2018-07-24T10:26:22.124Z,99931.00
2018-07-24T10:28:49.741Z,99939.00
2018-07-24T10:31:17.605Z,99931.00
2018-07-24T10:33:45.374Z,99925.00
2018-07-24T10:36:13.055Z,99921.00
2018-07-24T10:38:40.957Z,99923.00
2018-07-24T10:41:08.675Z,99914.00
2018-07-24T10:43:36.328Z,99915.00
2018-07-24T10:46:04.184Z,99911.00
2018-07-24T10:48:32.349Z,99911.00
2018-07-24T10:50:59.924Z,99904.00
2018-07-24T10:53:28.072Z,99907.00
2018-07-24T10:56:02.036Z,99912.00
2018-07-24T10:58:30.223Z,99911.00
2018-07-24T11:00:57.897Z,99907.00
2018-07-24T11:03:25.964Z,99902.00
2018-07-24T11:05:53.587Z,99899.00
2018-07-24T11:08:21.311Z,99896.00
2018-07-24T11:10:48.918Z,99891.00
2018-07-24T11:13:16.759Z,99887.00
2018-07-24T11:15:44.405Z,99884.00
2018-07-24T11:18:12.397Z,99890.00
2018-07-24T11:20:39.977Z,99885.00
2018-07-24T11:23:07.763Z,99879.00
2018-07-24T11:25:35.805Z,99883.00
2018-07-24T11:28:03.399Z,99875.00
2018-07-24T11:30:30.975Z,99881.00
2018-07-24T11:32:58.831Z,99879.00
2018-07-24T11:35:26.426Z,99873.00
2018-07-24T11:37:54.093Z,99874.00
2018-07-24T11:40:22.216Z,99871.00
2018-07-24T11:42:49.785Z,99870.00
2018-07-24T11:45:17.366Z,99865.00
2018-07-24T11:47:45.131Z,99858.00
2018-07-24T11:50:12.708Z,99863.00
2018-07-24T11:52:40.379Z,99860.00
2018-07-24T11:55:08.219Z,99854.00
2018-07-24T11:57:35.899Z,99846.00
2018-07-24T12:00:04.335Z,99853.00
2018-07-24T12:02:32.653Z,99853.00
2018-07-24T12:05:00.255Z,99849.00
2018-07-24T12:07:27.871Z,99851.00
2018-07-24T12:09:56.068Z,99845.00
2018-07-24T12:12:23.667Z,99840.00
2018-07-24T12:14:51.369Z,99840.00
2018-07-24T12:17:19.290Z,99841.00
2018-07-24T12:19:46.880Z,99839.00
2018-07-24T12:22:14.492Z,99835.00
2018-07-24T12:24:42.576Z,99830.00
2018-07-24T12:27:10.268Z,99830.00
2018-07-24T12:29:37.820Z,99831.00
2018-07-24T12:32:05.676Z,99829.00
2018-07-24T12:34:33.317Z,99839.00
2018-07-24T12:37:01.048Z,99831.00
2018-07-24T12:39:30.352Z,99830.00
2018-07-24T12:41:58.468Z,99829.00
2018-07-24T12:44:26.376Z,99832.00
2018-07-24T12:46:53.976Z,99827.00
2018-07-24T12:49:21.560Z,99824.00
2018-07-24T12:51:49.467Z,99817.00
2018-07-24T12:54:17.088Z,99818.00
2018-07-24T12:56:44.710Z,99818.00
2018-07-24T12:59:12.802Z,99824.00
2018-07-24T13:01:40.669Z,99822.00
2018-07-24T13:04:08.554Z,99817.00
2018-07-24T13:06:36.151Z,99806.00
2018-07-24T13:09:07.399Z,99809.00
2018-07-24T13:11:35.328Z,99803.00
2018-07-24T13:14:02.935Z,99802.00
2018-07-24T13:16:30.588Z,99797.00
2018-07-24T13:18:58.172Z,99802.00
2018-07-24T13:21:25.771Z,99803.00
2018-07-24T13:23:53.467Z,99797.00
2018-07-24T13:26:21.061Z,99797.00
2018-07-24T13:28:48.674Z,99792.00
2018-07-24T13:31:16.582Z,99792.00
2018-07-24T13:33:44.204Z,99787.00
2018-07-24T13:36:12.119Z,99779.00
2018-07-24T13:38:39.754Z,99779.00
2018-07-24T13:41:07.357Z,99771.00
2018-07-24T13:46:02.359Z,99771.00
2018-07-24T13:48:29.939Z,99773.00
2018-07-24T13:50:57.829Z,99762.00
2018-07-24T13:53:25.451Z,99754.00
2018-07-24T13:55:53.340Z,99762.00
2018-07-24T13:58:20.956Z,99763.00
2018-07-24T14:00:48.551Z,99755.00
2018-07-24T14:03:16.466Z,99755.00
2018-07-24T14:05:44.053Z,99753.00
2018-07-24T14:08:11.733Z,99750.00
2018-07-24T14:10:39.644Z,99753.00
2018-07-24T14:13:07.271Z,99753.00
2018-07-24T14:15:34.837Z,99757.00
2018-07-24T14:18:03.161Z,99749.00
2018-07-24T14:20:30.801Z,99754.00
2018-07-24T14:22:58.499Z,99750.00
2018-07-24T14:25:26.392Z,99748.00
2018-07-24T14:27:54.223Z,99745.00
2018-07-24T14:30:21.877Z,99739.00
2018-07-24T14:32:49.866Z,99738.00
2018-07-24T14:35:17.576Z,99735.00
2018-07-24T14:37:45.187Z,99723.00
2018-07-24T14:40:13.390Z,99727.00
2018-07-24T14:42:40.966Z,99727.00
2018-07-24T14:45:08.907Z,99726.00
2018-07-24T14:47:36.618Z,99724.00
2018-07-24T14:50:04.413Z,99723.00
2018-07-24T14:55:08.711Z,99719.00
2018-07-24T14:57:36.327Z,99716.00
2018-07-24T15:00:04.438Z,99717.00
2018-07-24T15:02:32.043Z,99716.00
2018-07-24T15:04:59.837Z,99713.00
2018-07-24T15:07:27.764Z,99708.00
2018-07-24T15:09:55.381Z,99721.00
2018-07-24T15:12:23.012Z,99720.00
2018-07-24T15:14:50.859Z,99715.00
2018-07-24T15:17:18.454Z,99712.00
2018-07-24T15:19:46.066Z,99709.00
2018-07-24T15:22:13.966Z,99714.00
2018-07-24T15:24:41.985Z,99719.00
2018-07-24T15:27:09.667Z,99712.00
2018-07-24T15:29:37.476Z,99709.00
2018-07-24T15:32:05.103Z,99702.00
2018-07-24T15:34:33.105Z,99704.00
2018-07-24T15:37:00.656Z,99700.00
2018-07-24T15:39:28.208Z,99692.00
2018-07-24T15:41:56.127Z,99696.00
2018-07-24T15:44:23.996Z,99694.00
2018-07-24T15:46:52.036Z,99684.00
2018-07-24T15:49:19.543Z,99689.00
2018-07-24T15:51:47.499Z,99687.00
2018-07-24T15:54:15.145Z,99683.00
2018-07-24T15:56:42.799Z,99687.00
2018-07-24T15:59:10.371Z,99684.00
2018-07-24T16:01:38.099Z,99687.00
2018-07-24T16:04:05.772Z,99690.00
2018-07-24T16:06:33.337Z,99687.00
2018-07-24T16:09:00.940Z,99684.00
2018-07-24T16:11:28.563Z,99682.00
2018-07-24T16:13:56.163Z,99687.00
2018-07-24T16:16:23.772Z,99681.00
2018-07-24T16:18:51.511Z,99683.00
2018-07-24T16:21:19.198Z,99675.00
2018-07-24T16:23:46.816Z,99679.00
2018-07-24T16:26:14.381Z,99680.00
2018-07-24T16:28:42.072Z,99679.00
2018-07-24T16:31:09.632Z,99679.00
2018-07-24T16:33:37.415Z,99674.00
2018-07-24T16:36:05.338Z,99685.00
2018-07-24T16:38:33.404Z,99676.00
2018-07-24T16:41:07.793Z,99674.00
2018-07-24T16:43:35.480Z,99679.00
2018-07-24T16:46:03.101Z,99675.00
2018-07-24T16:48:32.098Z,99677.00
2018-07-24T16:51:00.457Z,99676.00
2018-07-24T16:53:28.134Z,99680.00
2018-07-24T16:55:55.977Z,99672.00
2018-07-24T16:58:23.629Z,99680.00
2018-07-24T17:00:51.256Z,99678.00
2018-07-24T17:03:18.909Z,99674.00
2018-07-24T17:05:46.543Z,99672.00
2018-07-24T17:08:14.198Z,99673.00
2018-07-24T17:10:41.892Z,99675.00
2018-07-24T17:13:09.524Z,99676.00
2018-07-24T17:15:37.154Z,99677.00
2018-07-24T17:18:05.588Z,99677.00
2018-07-24T17:20:33.396Z,99677.00
2018-07-24T17:23:01.093Z,99680.00
2018-07-24T17:25:29.032Z,99676.00
2018-07-24T17:27:56.656Z,99687.00
2018-07-24T17:30:24.303Z,99688.00
2018-07-24T17:32:52.267Z,99689.00
2018-07-24T17:35:20.018Z,99686.00
2018-07-24T17:37:48.201Z,99685.00
2018-07-24T17:40:15.874Z,99689.00
2018-07-24T17:42:43.587Z,99690.00
2018-07-24T17:45:12.131Z,99692.00
2018-07-24T17:47:39.974Z,99695.00
2018-07-24T17:50:08.326Z,99696.00
2018-07-24T17:52:36.052Z,99702.00
2018-07-24T17:55:03.916Z,99704.00
2018-07-24T17:57:31.608Z,99706.00
2018-07-24T17:59:59.332Z,99708.00
2018-07-24T18:02:27.005Z,99706.00
2018-07-24T18:04:54.583Z,99709.00
2018-07-24T18:07:22.275Z,99708.00
2018-07-24T18:09:49.860Z,99707.00
2018-07-24T18:12:17.513Z,99706.00
2018-07-24T18:14:45.510Z,99711.00
2018-07-24T18:17:13.287Z,99710.00
2018-07-24T18:19:40.872Z,99712.00
2018-07-24T18:22:08.568Z,99715.00
2018-07-24T18:24:36.173Z,99718.00
2018-07-24T18:27:03.886Z,99713.00
2018-07-24T18:29:31.871Z,99714.00
2018-07-24T18:31:59.515Z,99717.00
2018-07-24T18:34:27.257Z,99717.00
2018-07-24T18:36:54.897Z,99719.00
2018-07-24T18:39:22.492Z,99718.00
2018-07-24T18:41:50.739Z,99726.00
2018-07-24T18:44:18.386Z,99720.00
2018-07-24T18:46:45.945Z,99721.00
2018-07-24T18:49:13.651Z,99723.00
2018-07-24T18:51:41.319Z,99723.00
2018-07-24T18:54:09.080Z,99724.00
2018-07-24T18:56:36.878Z,99725.00
2018-07-24T18:59:04.779Z,99728.00
2018-07-24T19:01:32.404Z,99726.00
2018-07-24T19:04:00.147Z,99729.00
2018-07-24T19:06:27.753Z,99731.00
2018-07-24T19:08:55.827Z,99733.00
2018-07-24T19:11:23.383Z,99736.00
2018-07-24T19:13:51.065Z,99733.00
2018-07-24T19:16:18.752Z,99733.00
2018-07-24T19:18:46.474Z,99738.00
2018-07-24T19:21:14.266Z,99738.00
2018-07-24T19:23:42.156Z,99741.00
2018-07-24T19:26:09.812Z,99744.00
2018-07-24T19:28:37.404Z,99748.00
2018-07-24T19:31:05.390Z,99745.00
2018-07-24T19:33:33.035Z,99750.00
2018-07-24T19:36:08.183Z,99752.00
2018-07-24T19:38:44.020Z,99759.00
2018-07-24T19:41:11.656Z,99758.00
2018-07-24T19:43:39.689Z,99759.00
2018-07-24T19:46:07.303Z,99765.00
2018-07-24T19:48:35.428Z,99763.00
2018-07-24T19:51:03.240Z,99768.00
2018-07-24T19:53:31.009Z,99768.00
2018-07-24T19:55:58.740Z,99769.00
2018-07-24T19:58:26.353Z,99770.00
2018-07-24T20:00:54.755Z,99775.00
2018-07-24T20:03:22.522Z,99778.00
2018-07-24T20:05:50.316Z,99778.00
2018-07-24T20:08:17.934Z,99779.00
2018-07-24T20:10:45.732Z,99786.00
2018-07-24T20:13:13.357Z,99783.00
2018-07-24T20:15:41.404Z,99782.00
2018-07-24T20:18:09.108Z,99786.00
2018-07-24T20:20:36.918Z,99788.00
2018-07-24T20:23:11.420Z,99795.00
2018-07-24T20:25:38.991Z,99799.00
2018-07-24T20:28:06.683Z,99800.00
2018-07-24T20:30:34.618Z,99804.00
2018-07-24T20:33:02.331Z,99805.00
2018-07-24T20:35:29.995Z,99807.00
2018-07-24T20:37:58.059Z,99804.00
2018-07-24T20:40:25.732Z,99803.00
2018-07-24T20:42:53.382Z,99800.00
2018-07-24T20:45:21.447Z,99803.00
2018-07-24T20:47:49.074Z,99802.00
2018-07-24T20:50:16.716Z,99803.00
2018-07-24T20:52:44.475Z,99801.00
2018-07-24T20:55:12.912Z,99804.00
2018-07-24T20:57:40.647Z,99802.00
2018-07-24T21:00:08.916Z,99806.00
2018-07-24T21:02:36.830Z,99804.00
2018-07-24T21:05:04.804Z,99810.00
2018-07-24T21:07:32.727Z,99813.00
2018-07-24T21:10:00.403Z,99809.00
2018-07-24T21:12:28.365Z,99808.00
2018-07-24T21:14:55.961Z,99808.00
2018-07-24T21:17:23.652Z,99804.00
2018-07-24T21:19:52.124Z,99804.00
2018-07-24T21:22:19.732Z,99808.00
2018-07-24T21:24:47.387Z,99807.00
2018-07-24T21:27:16.320Z,99810.00
2018-07-24T21:29:43.920Z,99809.00
2018-07-24T21:32:11.617Z,99805.00
2018-07-24T21:34:39.418Z,99808.00
2018-07-24T21:37:07.255Z,99816.00
2018-07-24T21:39:34.922Z,99814.00
2018-07-24T21:42:02.812Z,99815.00
2018-07-24T21:44:30.481Z,99815.00
2018-07-24T21:46:58.662Z,99818.00
2018-07-24T21:49:26.253Z,99819.00
2018-07-24T21:51:53.900Z,99820.00
2018-07-24T21:54:21.635Z,99817.00
2018-07-24T21:56:49.760Z,99820.00
2018-07-24T21:59:17.383Z,99821.00
2018-07-24T22:01:45.011Z,99821.00
2018-07-24T22:04:13.621Z,99822.00
2018-07-24T22:06:41.252Z,99823.00
2018-07-24T22:09:09.100Z,99821.00
2018-07-24T22:11:36.781Z,99820.00
2018-07-24T22:14:04.417Z,99825.00
2018-07-24T22:16:32.055Z,99823.00
2018-07-24T22:18:59.644Z,99823.00
2018-07-24T22:21:27.279Z,99822.00
2018-07-24T22:23:55.232Z,99823.00
2018-07-24T22:26:22.848Z,99815.00
2018-07-24T22:28:50.407Z,99821.00
2018-07-24T22:31:18.316Z,99822.00
2018-07-24T22:33:45.889Z,99821.00
2018-07-24T22:36:13.575Z,99818.00
2018-07-24T22:38:44.461Z,99816.00
2018-07-24T22:41:12.814Z,99818.00
2018-07-24T22:43:40.436Z,99818.00
2018-07-24T22:46:08.072Z,99828.00
2018-07-24T22:48:36.200Z,99832.00
2018-07-24T22:51:03.823Z,99829.00
2018-07-24T22:53:31.423Z,99832.00
2018-07-24T22:55:59.195Z,99834.00
2018-07-24T22:58:26.836Z,99835.00
2018-07-24T23:00:54.432Z,99837.00
2018-07-24T23:03:21.995Z,99832.00
2018-07-24T23:05:49.592Z,99832.00
2018-07-24T23:08:17.206Z,99832.00
2018-07-24T23:10:45.162Z,99834.00
2018-07-24T23:13:12.924Z,99835.00
2018-07-24T23:15:40.526Z,99841.00
2018-07-24T23:18:08.316Z,99840.00
2018-07-24T23:20:35.938Z,99840.00
2018-07-24T23:23:03.535Z,99843.00
2018-07-24T23:25:31.444Z,99839.00
2018-07-24T23:27:59.172Z,99839.00
2018-07-24T23:30:26.860Z,99840.00
2018-07-24T23:32:55.135Z,99837.00
2018-07-24T23:35:22.937Z,99841.00
2018-07-24T23:37:50.547Z,99836.00
2018-07-24T23:40:18.237Z,99830.00
2018-07-24T23:42:45.908Z,99836.00
2018-07-24T23:45:13.496Z,99836.00
2018-07-24T23:47:41.436Z,99838.00
2018-07-24T23:50:09.015Z,99839.00
2018-07-24T23:52:36.752Z,99840.00
2018-07-24T23:55:04.527Z,99837.00
2018-07-24T23:57:32.104Z,99840.00
2018-07-24T23:59:59.728Z,99842.00
